Time;durP1;ratioP1;P1;durP2;ratioP2;P2;SDS_P1;SDS_P2;PMS_P1;PMS_P2;Temp;Humidity;BMP_temperature;BMP_pressure;BME280_temperature;BME280_humidity;BME280_pressure;Samples;Min_cycle;Max_cycle;Signal;HPM_P1;HPM_P2
2023/04/12 00:01:25;;;;;;;12.10;9.20;;;;;;;5.28;100.00;96016.05;109486;1251;22517;-88
2023/04/12 00:04:00;;;;;;;11.50;9.30;;;;;;;5.26;100.00;96026.46;109476;1266;22557;-87
2023/04/12 00:06:35;;;;;;;14.10;11.00;;;;;;;5.27;100.00;96022.84;109453;1270;22525;-88
2023/04/12 00:09:09;;;;;;;12.00;10.10;;;;;;;5.26;100.00;96031.98;109410;1262;69224;-87
2023/04/12 00:11:47;;;;;;;12.90;9.70;;;;;;;5.26;100.00;96033.66;109523;1270;22834;-87
2023/04/12 00:14:21;;;;;;;11.60;8.60;;;;;;;5.26;100.00;96040.29;109442;1270;22633;-87
2023/04/12 00:16:56;;;;;;;13.70;10.20;;;;;;;5.28;100.00;96026.52;109441;1270;22614;-87
2023/04/12 00:19:30;;;;;;;13.90;10.00;;;;;;;5.26;100.00;96019.84;109408;1269;56104;-88
2023/04/12 00:22:08;;;;;;;17.40;10.20;;;;;;;5.26;100.00;96022.68;109397;1266;22546;-88
2023/04/12 00:24:46;;;;;;;15.30;11.70;;;;;;;5.23;100.00;96020.48;109398;1262;22591;-88
2023/04/12 00:27:21;;;;;;;15.00;12.50;;;;;;;5.23;100.00;96019.79;109417;1270;24233;-88
2023/04/12 00:29:52;;;;;;;13.40;10.20;;;;;;;5.23;100.00;96016.63;109416;1267;55725;-87
2023/04/12 00:32:26;;;;;;;16.00;9.50;;;;;;;5.21;100.00;96008.41;109418;1270;22547;-88
2023/04/12 00:34:57;;;;;;;16.50;13.20;;;;;;;5.17;100.00;96020.80;109309;1268;24425;-88
2023/04/12 00:37:29;;;;;;;16.70;11.80;;;;;;;5.17;100.00;96011.08;109407;1270;22546;-88
2023/04/12 00:40:00;;;;;;;14.50;10.90;;;;;;;5.17;100.00;96007.35;109409;1262;54853;-88
2023/04/12 00:42:31;;;;;;;17.20;12.40;;;;;;;5.16;100.00;96011.81;109426;1270;22511;-88
2023/04/12 00:45:02;;;;;;;14.10;12.00;;;;;;;5.15;100.00;96010.77;109333;1270;22511;-88
2023/04/12 00:47:35;;;;;;;13.60;8.60;;;;;;;5.13;100.00;96010.91;109258;1271;24024;-88
2023/04/12 00:50:08;;;;;;;14.70;11.50;;;;;;;5.11;100.00;96011.29;109294;1270;98290;-88
2023/04/12 00:52:40;;;;;;;15.40;11.20;;;;;;;5.07;100.00;96010.05;109415;1270;24229;-88
2023/04/12 00:55:11;;;;;;;14.80;10.90;;;;;;;5.04;100.00;96003.79;109392;1270;22692;-88
2023/04/12 00:57:46;;;;;;;18.30;12.80;;;;;;;5.02;100.00;96008.24;109464;1270;22547;-87
2023/04/12 01:00:20;;;;;;;16.10;12.10;;;;;;;5.00;100.00;96007.23;109399;1256;73063;-87
2023/04/12 01:02:53;;;;;;;16.60;12.50;;;;;;;4.98;100.00;96003.40;109460;1254;22654;-88
2023/04/12 01:05:25;;;;;;;13.50;9.80;;;;;;;4.97;100.00;96004.24;109373;1269;22574;-88
2023/04/12 01:08:09;;;;;;;14.10;10.90;;;;;;;4.97;100.00;96004.50;109394;1268;23880;-88
2023/04/12 01:10:49;;;;;;;15.50;11.80;;;;;;;4.96;100.00;96005.23;109412;1267;103917;-88
2023/04/12 01:13:32;;;;;;;14.70;11.50;;;;;;;4.96;100.00;96005.77;109351;1265;22513;-88
2023/04/12 01:16:13;;;;;;;15.00;11.80;;;;;;;4.96;100.00;96003.98;109408;1266;22575;-88
2023/04/12 01:18:51;;;;;;;14.30;10.50;;;;;;;4.95;100.00;96006.81;109431;1263;22528;-87
2023/04/12 01:21:37;;;;;;;12.30;8.70;;;;;;;4.93;100.00;96006.64;107821;1265;2061254;-88
2023/04/12 01:24:23;;;;;;;14.00;10.50;;;;;;;4.89;100.00;96004.77;109492;1270;22533;-88
2023/04/12 01:27:00;;;;;;;14.10;10.30;;;;;;;4.86;100.00;96007.29;109324;1270;22559;-88
2023/04/12 01:29:33;;;;;;;13.30;9.70;;;;;;;4.82;100.00;96006.59;109386;1270;73474;-88
2023/04/12 01:32:08;;;;;;;13.30;10.50;;;;;;;4.77;100.00;96005.51;109474;1265;22523;-88
2023/04/12 01:34:41;;;;;;;14.00;10.40;;;;;;;4.73;100.00;96004.51;109474;1270;23898;-88
2023/04/12 01:37:15;;;;;;;16.10;12.70;;;;;;;4.70;100.00;96008.54;109445;1270;22589;-88
2023/04/12 01:39:46;;;;;;;17.20;13.40;;;;;;;4.68;100.00;96011.63;107840;1262;2132111;-87
2023/04/12 01:42:21;;;;;;;14.40;11.40;;;;;;;4.68;100.00;96004.75;109406;1270;22577;-88
2023/04/12 01:44:55;;;;;;;15.40;11.50;;;;;;;4.67;100.00;96005.48;109436;1269;22571;-87
2023/04/12 01:47:29;;;;;;;15.80;12.20;;;;;;;4.65;100.00;96003.63;109327;1264;25444;-88
2023/04/12 01:50:13;;;;;;;15.90;10.90;;;;;;;4.64;100.00;96006.19;109245;1270;143766;-87
2023/04/12 01:52:55;;;;;;;18.00;13.30;;;;;;;4.62;100.00;96007.75;109472;1264;25243;-88
2023/04/12 01:55:40;;;;;;;16.20;11.20;;;;;;;4.61;100.00;96009.16;109342;1262;22540;-87
2023/04/12 01:58:14;;;;;;;14.00;11.20;;;;;;;4.60;100.00;96011.89;109469;1270;22727;-88
2023/04/12 02:00:48;;;;;;;16.10;12.60;;;;;;;4.60;100.00;96012.94;109377;1270;85659;-88
2023/04/12 02:03:25;;;;;;;15.50;11.50;;;;;;;4.58;100.00;96008.89;109471;1265;23535;-87
2023/04/12 02:06:02;;;;;;;14.70;9.90;;;;;;;4.57;100.00;96004.69;109490;1262;22697;-88
2023/04/12 02:08:36;;;;;;;16.40;13.10;;;;;;;4.55;100.00;96005.52;109488;1270;22504;-87
2023/04/12 02:11:13;;;;;;;20.30;14.50;;;;;;;4.54;100.00;96008.09;109407;1265;42932;-88
2023/04/12 02:13:49;;;;;;;10.30;7.90;;;;;;;4.55;100.00;96006.09;109346;1270;23664;-88
2023/04/12 02:16:21;;;;;;;14.80;12.50;;;;;;;4.54;100.00;96009.61;109420;1267;22598;-88
2023/04/12 02:18:53;;;;;;;16.60;12.30;;;;;;;4.53;100.00;96010.18;109456;1265;22507;-88
2023/04/12 02:21:26;;;;;;;17.40;13.60;;;;;;;4.52;100.00;96011.44;108067;1265;1775919;-88
2023/04/12 02:24:06;;;;;;;16.30;12.20;;;;;;;4.50;100.00;96013.10;109459;1265;22511;-88
2023/04/12 02:26:37;;;;;;;16.10;11.00;;;;;;;4.48;100.00;96009.50;109496;1266;25243;-88
2023/04/12 02:29:16;;;;;;;15.20;13.20;;;;;;;4.45;100.00;96008.29;109399;1260;101237;-87
2023/04/12 02:31:48;;;;;;;14.30;10.40;;;;;;;4.45;100.00;96012.74;109483;1270;22515;-88
2023/04/12 02:34:20;;;;;;;13.90;10.60;;;;;;;4.44;100.00;96016.52;109303;1270;22504;-88
2023/04/12 02:36:54;;;;;;;11.30;7.70;;;;;;;4.43;100.00;96011.33;109501;1270;22580;-88
2023/04/12 02:39:25;;;;;;;9.10;6.40;;;;;;;4.41;100.00;96005.34;109480;1258;53292;-88
2023/04/12 02:41:56;;;;;;;10.90;8.80;;;;;;;4.40;100.00;96011.83;109467;1265;22519;-87
2023/04/12 02:44:30;;;;;;;12.10;9.70;;;;;;;4.41;100.00;96014.83;109468;1265;22507;-88
2023/04/12 02:47:02;;;;;;;11.70;6.60;;;;;;;4.41;100.00;96014.73;109488;1262;22523;-88
2023/04/12 02:49:34;;;;;;;12.40;9.70;;;;;;;4.39;100.00;96021.64;108121;1270;1795315;-89
2023/04/12 02:52:06;;;;;;;10.70;8.40;;;;;;;4.36;100.00;96016.48;109483;1262;22567;-88
2023/04/12 02:54:37;;;;;;;9.30;6.50;;;;;;;4.34;100.00;96008.80;109520;1270;22523;-88
2023/04/12 02:57:10;;;;;;;8.60;6.40;;;;;;;4.32;100.00;96011.05;109538;1270;22509;-88
2023/04/12 02:59:42;;;;;;;10.30;7.10;;;;;;;4.30;100.00;96010.71;109428;1270;109793;-87
2023/04/12 03:02:17;;;;;;;11.80;8.40;;;;;;;4.27;100.00;96012.27;109475;1270;23805;-87
2023/04/12 03:04:52;;;;;;;11.90;7.30;;;;;;;4.26;100.00;96012.07;109495;1267;25959;-88
2023/04/12 03:07:23;;;;;;;13.40;8.10;;;;;;;4.24;100.00;96011.32;109284;1269;22521;-86
2023/04/12 03:09:54;;;;;;;12.50;8.90;;;;;;;4.23;100.00;96022.95;109259;1268;52695;-87
2023/04/12 03:12:27;;;;;;;14.30;7.70;;;;;;;4.22;100.00;96018.64;109511;1269;22548;-88
2023/04/12 03:17:52;;;;;;;12.50;10.60;;;;;;;4.17;100.00;96014.24;109383;1270;24309;-87
2023/04/12 03:20:26;;;;;;;14.30;9.40;;;;;;;4.14;100.00;96019.17;107520;1267;2367661;-87
2023/04/12 03:22:58;;;;;;;17.00;13.60;;;;;;;4.13;100.00;96027.45;109373;1270;22512;-87
2023/04/12 03:25:29;;;;;;;16.80;11.80;;;;;;;4.14;100.00;96020.68;109480;1270;22649;-87
2023/04/12 03:28:00;;;;;;;18.50;13.70;;;;;;;4.15;100.00;96014.87;109492;1270;22511;-87
2023/04/12 03:30:32;;;;;;;15.60;11.60;;;;;;;4.14;100.00;96005.31;109405;1270;101146;-88
2023/04/12 03:33:05;;;;;;;14.90;10.10;;;;;;;4.13;100.00;96011.60;109450;1270;22527;-87
2023/04/12 03:35:37;;;;;;;17.90;13.20;;;;;;;4.12;100.00;96010.97;109449;1270;22498;-87
2023/04/12 03:38:08;;;;;;;18.40;13.10;;;;;;;4.12;100.00;96021.10;109481;1270;24266;-87
2023/04/12 03:40:44;;;;;;;16.60;12.80;;;;;;;4.12;100.00;96020.88;109444;1258;51617;-88
2023/04/12 03:43:17;;;;;;;15.30;12.60;;;;;;;4.13;100.00;96022.52;109348;1267;22523;-87
2023/04/12 03:45:49;;;;;;;15.00;10.50;;;;;;;4.15;100.00;96016.27;109579;1269;24242;-87
2023/04/12 03:48:22;;;;;;;12.90;9.90;;;;;;;4.13;100.00;96024.88;109245;1270;22541;-86
2023/04/12 03:50:54;;;;;;;13.40;10.70;;;;;;;4.11;100.00;96026.49;107910;1265;2071869;-87
2023/04/12 03:53:30;;;;;;;14.90;11.60;;;;;;;4.10;100.00;96026.86;109398;1269;24118;-87
2023/04/12 03:56:02;;;;;;;12.40;11.10;;;;;;;4.12;100.00;96032.58;109512;1270;22498;-87
2023/04/12 03:58:37;;;;;;;13.60;11.60;;;;;;;4.14;100.00;96032.48;109494;1270;22511;-87
2023/04/12 04:01:12;;;;;;;14.10;12.00;;;;;;;4.12;100.00;96026.91;109442;1268;93230;-87
2023/04/12 04:03:44;;;;;;;14.80;11.50;;;;;;;4.09;100.00;96025.33;109494;1270;22504;-86
2023/04/12 04:06:16;;;;;;;13.00;11.60;;;;;;;4.08;100.00;96032.13;109313;1270;22549;-86
2023/04/12 04:08:53;;;;;;;15.20;11.70;;;;;;;4.09;100.00;96039.29;109547;1268;22504;-87
2023/04/12 04:11:24;;;;;;;9.30;8.10;;;;;;;4.09;100.00;96032.88;109455;1268;54267;-87
2023/04/12 04:13:56;;;;;;;13.00;11.20;;;;;;;4.07;100.00;96031.38;109407;1268;22545;-87
2023/04/12 04:16:28;;;;;;;10.90;9.00;;;;;;;4.08;100.00;96034.11;109471;1268;22577;-86
2023/04/12 04:19:00;;;;;;;12.40;7.40;;;;;;;4.08;100.00;96034.91;109461;1270;22535;-87
2023/04/12 04:21:35;;;;;;;14.10;10.30;;;;;;;4.07;100.00;96032.79;109263;1262;67018;-88
2023/04/12 04:24:10;;;;;;;13.90;11.00;;;;;;;4.07;100.00;96034.20;109496;1268;23170;-87
2023/04/12 04:26:43;;;;;;;12.80;10.10;;;;;;;4.07;100.00;96039.04;109499;1262;22613;-87
2023/04/12 04:29:25;;;;;;;13.30;10.70;;;;;;;4.08;100.00;96035.23;109431;1263;92223;-88
2023/04/12 04:31:56;;;;;;;12.90;7.40;;;;;;;4.10;100.00;96037.45;109455;1270;22585;-87
2023/04/12 04:34:28;;;;;;;12.30;9.20;;;;;;;4.10;100.00;96041.02;109479;1270;22539;-88
2023/04/12 04:36:59;;;;;;;14.00;10.60;;;;;;;4.09;100.00;96043.32;109498;1265;22526;-87
2023/04/12 04:39:30;;;;;;;14.00;10.00;;;;;;;4.11;100.00;96042.34;109067;1268;120383;-87
2023/04/12 04:42:05;;;;;;;11.50;9.10;;;;;;;4.12;100.00;96043.18;109248;1271;22604;-87
2023/04/12 04:44:37;;;;;;;11.00;8.40;;;;;;;4.13;100.00;96046.13;109364;1270;23854;-87
2023/04/12 04:47:10;;;;;;;11.50;8.70;;;;;;;4.14;100.00;96051.63;109268;1271;22715;-87
2023/04/12 04:49:42;;;;;;;11.60;8.80;;;;;;;4.14;100.00;96051.02;109117;1271;87470;-88
2023/04/12 04:52:17;;;;;;;11.30;9.40;;;;;;;4.14;100.00;96053.52;109233;1271;22507;-87
2023/04/12 04:54:50;;;;;;;11.10;8.50;;;;;;;4.14;100.00;96052.84;109205;1268;24647;-87
2023/04/12 04:57:21;;;;;;;13.50;9.30;;;;;;;4.15;100.00;96056.21;109226;1271;22511;-86
2023/04/12 04:59:54;;;;;;;11.30;8.70;;;;;;;4.17;100.00;96055.33;109131;1271;126263;-87
2023/04/12 05:02:33;;;;;;;10.50;8.10;;;;;;;4.18;100.00;96051.13;109172;1268;22747;-87
2023/04/12 05:05:22;;;;;;;11.70;9.10;;;;;;;4.19;100.00;96051.14;109215;1271;22825;-88
2023/04/12 05:07:54;;;;;;;12.40;8.80;;;;;;;4.21;100.00;96053.83;109249;1262;22531;-87
2023/04/12 05:10:35;;;;;;;10.30;7.50;;;;;;;4.19;100.00;96050.25;107860;1271;1838224;-87
2023/04/12 05:13:16;;;;;;;9.90;6.90;;;;;;;4.18;100.00;96048.77;109199;1271;22807;-86
2023/04/12 05:15:57;;;;;;;10.30;8.40;;;;;;;4.19;100.00;96049.25;109130;1268;23767;-87
2023/04/12 05:18:32;;;;;;;11.50;9.40;;;;;;;4.20;100.00;96049.77;109249;1271;22553;-87
2023/04/12 05:21:18;;;;;;;11.80;9.80;;;;;;;4.23;100.00;96051.96;109211;1264;85440;-87
2023/04/12 05:23:52;;;;;;;12.70;10.10;;;;;;;4.25;100.00;96057.60;109126;1271;22881;-87
2023/04/12 05:26:26;;;;;;;11.50;9.00;;;;;;;4.30;100.00;96061.30;109243;1271;22512;-88
2023/04/12 05:29:02;;;;;;;9.30;7.70;;;;;;;4.34;100.00;96059.54;109139;1272;22510;-87
2023/04/12 05:31:47;;;;;;;;;;;;;;;;;;;;;
2023/04/12 05:34:28;;;;;;;10.50;8.30;;;;;;;4.30;100.00;96059.58;109265;1270;22520;-87
2023/04/12 05:36:59;;;;;;;10.30;8.00;;;;;;;4.35;100.00;96060.45;109310;1271;24162;-88
2023/04/12 05:39:36;;;;;;;9.00;7.70;;;;;;;4.40;100.00;96063.11;109200;1270;136052;-88
2023/04/12 05:42:20;;;;;;;10.50;8.70;;;;;;;4.41;100.00;96062.86;109459;1269;22721;-88
2023/04/12 05:45:08;;;;;;;10.00;7.70;;;;;;;4.39;100.00;96062.16;109603;1269;22512;-88
2023/04/12 05:47:54;;;;;;;9.00;7.50;;;;;;;4.37;99.99;96061.27;109374;1270;23065;-89
2023/04/12 05:50:44;;;;;;;10.00;7.70;;;;;;;4.35;99.83;96066.16;109325;1263;105065;-89
2023/04/12 05:53:27;;;;;;;;;;;;;;;;;;;;;
2023/04/12 05:55:58;;;;;;;11.80;8.20;;;;;;;4.36;100.00;96062.55;109214;1271;22518;-89
2023/04/12 05:58:32;;;;;;;11.60;8.60;;;;;;;4.36;99.95;96063.28;109254;1271;24279;-89
2023/04/12 06:01:21;;;;;;;;;;;;;;;;;;;;;
2023/04/12 06:04:17;;;;;;;9.90;7.90;;;;;;;4.33;99.85;96062.27;109227;1271;24462;-88
2023/04/12 06:07:00;;;;;;;11.60;9.20;;;;;;;4.35;99.88;96066.48;109245;1271;22540;-88
2023/04/12 06:09:50;;;;;;;10.80;8.20;;;;;;;4.36;99.61;96059.88;109135;1271;120188;-88
2023/04/12 06:12:25;;;;;;;10.50;7.90;;;;;;;4.36;99.45;96061.55;109243;1271;24291;-88
2023/04/12 06:15:00;;;;;;;12.00;8.40;;;;;;;4.37;99.36;96067.77;109198;1271;22515;-88
2023/04/12 06:17:53;;;;;;;;;;;;;;;;;;;;;
2023/04/12 06:20:54;;;;;;;10.40;8.50;;;;;;;4.44;99.13;96066.02;108873;1272;107061;-89
2023/04/12 06:23:55;;;;;;;10.80;7.50;;;;;;;4.50;99.29;96061.49;109213;1265;22548;-88
2023/04/12 06:26:58;;;;;;;9.30;6.90;;;;;;;4.53;99.52;96061.58;109188;1265;25445;-88
2023/04/12 06:29:35;;;;;;;9.60;6.50;;;;;;;4.57;99.46;96062.70;109224;1271;22522;-88
2023/04/12 06:32:23;;;;;;;8.80;7.60;;;;;;;4.61;99.04;96052.99;109177;1271;22553;-88
2023/04/12 06:35:08;;;;;;;9.90;7.70;;;;;;;4.58;98.75;96047.27;109223;1271;22673;-88
2023/04/12 06:37:45;;;;;;;8.80;6.30;;;;;;;4.58;98.62;96046.27;109204;1271;25510;-88
2023/04/12 06:40:25;;;;;;;9.50;7.10;;;;;;;4.57;98.17;96040.75;105159;1269;5321100;-89
2023/04/12 06:43:19;;;;;;;9.40;7.50;;;;;;;4.58;98.89;96045.59;109225;1271;24980;-88
2023/04/12 06:46:07;;;;;;;;;;;;;;;;;;;;;
2023/04/12 06:48:39;;;;;;;;;;;;;;;4.64;98.51;96042.79;109188;1271;22516;-88
2023/04/12 06:51:34;;;;;;;9.10;7.00;;;;;;;4.65;98.34;96039.50;109285;1269;65315;-89
2023/04/12 06:54:11;;;;;;;10.30;7.40;;;;;;;4.67;98.45;96037.62;109284;1270;24036;-88
2023/04/12 06:57:01;;;;;;;8.30;6.80;;;;;;;4.70;98.46;96042.93;109441;1270;22517;-88
2023/04/12 06:59:41;;;;;;;9.70;7.80;;;;;;;4.72;98.23;96045.77;109335;1269;22513;-89
2023/04/12 07:02:21;;;;;;;10.50;7.70;;;;;;;4.76;98.24;96045.95;109256;1266;100588;-88
2023/04/12 07:05:01;;;;;;;9.80;7.60;;;;;;;4.79;98.22;96042.83;109214;1270;23078;-89
2023/04/12 07:07:33;;;;;;;9.70;7.30;;;;;;;4.76;97.67;96047.36;109416;1269;23811;-88
2023/04/12 07:10:20;;;;;;;10.20;7.50;;;;;;;4.72;97.17;96049.02;107867;1266;1888554;-89
2023/04/12 07:13:02;;;;;;;10.40;7.60;;;;;;;4.76;97.54;96045.05;109290;1255;22511;-88
2023/04/12 07:16:02;;;;;;;9.50;7.30;;;;;;;4.77;97.53;96045.67;109339;1270;23327;-89
2023/04/12 07:18:48;;;;;;;10.00;8.50;;;;;;;4.81;97.72;96051.19;109205;1268;22680;-88
2023/04/12 07:21:24;;;;;;;8.70;7.60;;;;;;;4.84;97.61;96052.45;107855;1270;2034384;-88
2023/04/12 07:24:07;;;;;;;9.90;7.90;;;;;;;4.86;97.32;96051.09;109295;1268;22596;-88
2023/04/12 07:26:44;;;;;;;9.30;7.60;;;;;;;4.87;97.05;96050.47;109481;1268;22530;-88
2023/04/12 07:29:23;;;;;;;9.30;7.40;;;;;;;4.88;97.09;96053.94;109483;1270;23910;-88
2023/04/12 07:32:21;;;;;;;10.00;6.80;;;;;;;4.91;96.95;96053.05;109511;1263;67537;-88
2023/04/12 07:34:58;;;;;;;8.30;7.20;;;;;;;4.95;96.65;96051.15;109459;1270;25221;-90
2023/04/12 07:37:33;;;;;;;9.00;6.50;;;;;;;4.97;96.69;96049.58;109202;1270;24201;-90
2023/04/12 07:40:08;;;;;;;8.90;6.40;;;;;;;5.01;96.40;96047.34;109192;1262;87262;-90
2023/04/12 07:42:41;;;;;;;8.60;6.20;;;;;;;5.03;96.16;96048.95;109478;1264;22512;-90
2023/04/12 07:45:28;;;;;;;9.60;6.80;;;;;;;5.05;95.94;96053.06;109497;1263;22556;-88
2023/04/12 07:48:02;;;;;;;9.70;7.40;;;;;;;5.09;96.22;96052.11;109521;1269;22725;-91
2023/04/12 07:50:34;;;;;;;9.90;6.40;;;;;;;5.10;95.61;96051.33;107868;1269;2160862;-88
2023/04/12 07:53:25;;;;;;;8.60;6.50;;;;;;;5.13;95.68;96049.75;109473;1270;23768;-88
2023/04/12 07:56:09;;;;;;;9.30;6.60;;;;;;;5.19;95.57;96045.77;109231;1260;26619;-88
2023/04/12 07:58:50;;;;;;;10.20;5.60;;;;;;;5.24;95.54;96043.70;109467;1270;25337;-88
2023/04/12 08:01:26;;;;;;;6.90;5.60;;;;;;;5.27;94.90;96037.30;105385;1265;5318300;-90
2023/04/12 08:04:15;;;;;;;6.50;4.80;;;;;;;5.38;95.45;96034.95;109493;1270;22506;-88
2023/04/12 08:06:55;;;;;;;9.70;6.10;;;;;;;5.47;95.14;96035.14;109344;1270;22525;-88
2023/04/12 08:09:32;;;;;;;8.70;5.60;;;;;;;5.60;94.57;96036.95;109493;1270;22614;-89
2023/04/12 08:12:20;;;;;;;;;;;;;;;;;;;;;
2023/04/12 08:14:53;;;;;;;8.70;5.80;;;;;;;5.92;93.45;96033.66;109450;1253;22928;-88
2023/04/12 08:17:35;;;;;;;7.80;5.80;;;;;;;5.88;92.82;96033.62;109458;1267;22617;-89
2023/04/12 08:20:14;;;;;;;9.10;5.80;;;;;;;5.95;93.40;96035.71;109214;1271;22531;-89
2023/04/12 08:23:01;;;;;;;10.70;6.60;;;;;;;5.96;92.21;96034.61;109321;1270;22551;-89
2023/04/12 08:25:39;;;;;;;6.10;4.80;;;;;;;5.92;92.27;96039.20;109501;1270;22559;-89
2023/04/12 08:28:29;;;;;;;;;;;;;;;;;;;;;
2023/04/12 08:31:22;;;;;;;7.20;4.90;;;;;;;5.91;91.86;96035.88;107744;1253;1965539;-88
2023/04/12 08:34:01;;;;;;;8.40;5.10;;;;;;;5.91;92.10;96032.30;109077;1271;22547;-89
2023/04/12 08:36:42;;;;;;;8.00;5.70;;;;;;;5.93;91.96;96026.67;109207;1261;22615;-89
2023/04/12 08:39:23;;;;;;;6.80;4.40;;;;;;;5.94;91.57;96027.98;109126;1272;22569;-89
2023/04/12 08:42:21;;;;;;;9.40;5.70;;;;;;;5.96;90.99;96025.92;107606;1266;2119556;-89
2023/04/12 08:45:08;;;;;;;7.80;4.90;;;;;;;6.03;91.16;96026.73;109153;1272;22513;-89
2023/04/12 08:47:51;;;;;;;9.30;5.50;;;;;;;6.20;90.99;96025.20;109194;1271;24036;-89
2023/04/12 08:50:43;;;;;;;7.90;5.10;;;;;;;6.21;89.48;96025.24;109277;1269;22542;-88
2023/04/12 08:53:30;;;;;;;;;;;;;;;6.14;89.74;96028.51;109255;1271;24294;-89
2023/04/12 08:56:24;;;;;;;6.70;4.60;;;;;;;6.28;90.38;96023.45;109217;1268;23880;-89
2023/04/12 08:59:05;;;;;;;6.80;4.50;;;;;;;6.46;89.92;96022.16;109172;1271;22542;-89
2023/04/12 09:01:47;;;;;;;6.00;4.30;;;;;;;6.59;89.63;96020.55;109191;1271;81924;-88
2023/04/12 09:05:14;;;;;;;7.60;4.80;;;;;;;6.68;88.59;96017.11;109209;1270;24210;-89
2023/04/12 09:08:10;;;;;;;11.20;6.20;;;;;;;6.64;87.96;96016.35;109213;1271;22565;-89
2023/04/12 09:11:00;;;;;;;9.20;5.00;;;;;;;6.60;87.29;96017.23;109075;1272;22556;-89
2023/04/12 09:14:16;;;;;;;;;;;;;;;;;;;;;
2023/04/12 09:17:05;;;;;;;5.30;4.60;;;;;;;6.75;86.99;96016.62;109226;1271;22513;-88
2023/04/12 09:19:57;;;;;;;6.90;4.30;;;;;;;6.83;86.69;96010.90;109134;1271;22560;-88
2023/04/12 09:23:26;;;;;;;;;;;;;;;;;;;;;
2023/04/12 09:30:04;;;;;;;;;;;;;;;;;;;;;
2023/04/12 09:51:12;;;;;;;7.20;3.50;;;;;;;9.34;81.36;95974.31;107106;1285;22565;-89
2023/04/12 09:53:59;;;;;;;3.60;3.00;;;;;;;9.44;79.65;95977.45;107381;1276;2003820;-88
2023/04/12 09:56:44;;;;;;;4.60;2.90;;;;;;;9.53;78.11;95972.52;108835;1276;22562;-89
2023/04/12 09:59:24;;;;;;;4.00;3.50;;;;;;;9.35;77.02;95968.70;109515;1269;22509;-87
2023/04/12 10:02:14;;;;;;;2.70;2.50;;;;;;;9.43;77.49;95965.52;105200;1264;5380585;-88
2023/04/12 10:04:53;;;;;;;5.50;3.40;;;;;;;9.45;76.34;95962.95;109186;1270;22504;-88
2023/04/12 10:07:28;;;;;;;4.60;2.70;;;;;;;9.34;74.71;95961.41;109194;1270;23194;-88
2023/04/12 10:10:23;;;;;;;;;;;;;;;;;;;;;
2023/04/12 10:13:03;;;;;;;2.80;2.40;;;;;;;9.12;75.27;95956.19;109126;1271;125642;-88
2023/04/12 10:15:43;;;;;;;4.90;2.90;;;;;;;9.09;74.95;95950.84;109253;1271;22543;-87
2023/04/12 10:18:31;;;;;;;3.30;2.60;;;;;;;9.01;74.93;95950.42;109234;1271;22631;-87
2023/04/12 10:21:11;;;;;;;3.70;2.70;;;;;;;9.02;75.21;95948.23;109266;1271;24530;-87
2023/04/12 10:23:47;;;;;;;3.30;2.60;;;;;;;9.10;75.27;95949.13;109192;1270;93849;-87
2023/04/12 10:26:24;;;;;;;4.60;2.70;;;;;;;9.22;75.63;95948.45;109239;1271;22570;-88
2023/04/12 10:29:28;;;;;;;3.40;2.60;;;;;;;9.30;75.17;95948.23;109197;1271;22563;-88
2023/04/12 10:32:17;;;;;;;;;;;;;;;9.34;74.73;95944.22;107702;1264;2023799;-88
2023/04/12 10:34:59;;;;;;;3.30;2.30;;;;;;;9.38;75.07;95941.77;109338;1258;22513;-87
2023/04/12 10:38:06;;;;;;;2.60;2.20;;;;;;;9.53;74.00;95935.84;109355;1267;26551;-88
2023/04/12 10:41:07;;;;;;;3.90;2.40;;;;;;;9.26;71.85;95938.46;109236;1270;22524;-87
2023/04/12 10:43:47;;;;;;;3.60;2.70;;;;;;;9.04;72.45;95936.44;109265;1270;99911;-87
2023/04/12 10:47:10;;;;;;;;;;;;;;;;;;;;;
2023/04/12 10:50:23;;;;;;;3.30;2.50;;;;;;;9.07;71.82;95928.17;109297;1267;22500;-87
2023/04/12 10:53:27;;;;;;;3.30;2.00;;;;;;;9.29;73.21;95927.83;108034;1270;1804471;-87
2023/04/12 10:56:39;;;;;;;3.50;2.40;;;;;;;9.68;72.51;95926.20;109292;1248;22542;-88
2023/04/12 10:59:24;;;;;;;3.60;2.30;;;;;;;9.77;71.74;95923.98;109401;1270;25417;-87
2023/04/12 11:02:27;;;;;;;3.50;2.10;;;;;;;10.01;72.19;95922.95;109235;1271;22622;-87
2023/04/12 11:05:51;;;;;;;2.90;2.40;;;;;;;10.02;70.46;95918.55;108777;1271;22942;-87
2023/04/12 11:08:30;;;;;;;3.10;2.40;;;;;;;9.82;69.19;95920.25;109190;1270;25648;-87
2023/04/12 11:11:18;;;;;;;2.70;2.50;;;;;;;9.71;68.69;95918.63;109280;1264;26665;-87
2023/04/12 11:14:01;;;;;;;4.70;3.00;;;;;;;9.48;68.32;95923.52;107973;1270;1782723;-87
2023/04/12 11:17:47;;;;;;;4.20;3.20;;;;;;;9.18;67.54;95923.85;109273;1269;22547;-87
2023/04/12 11:20:22;;;;;;;4.10;2.70;;;;;;;8.98;68.57;95922.70;109157;1269;22624;-87
2023/04/12 11:23:04;;;;;;;3.90;2.60;;;;;;;8.98;69.38;95926.33;109265;1270;143094;-87
2023/04/12 11:26:10;;;;;;;4.20;3.00;;;;;;;9.08;70.03;95920.98;109337;1270;23966;-88
2023/04/12 11:28:57;;;;;;;3.70;2.70;;;;;;;9.25;69.83;95916.77;109391;1270;22536;-87
2023/04/12 11:31:53;;;;;;;4.30;3.00;;;;;;;9.20;68.77;95918.33;109414;1264;25432;-87
2023/04/12 11:34:41;;;;;;;3.20;2.90;;;;;;;9.26;69.12;95915.60;107974;1267;1784324;-87
2023/04/12 11:37:35;;;;;;;;;;;;;;;;;;;;;
2023/04/12 11:40:30;;;;;;;4.40;2.40;;;;;;;9.18;68.41;95912.85;109367;1270;22515;-87
2023/04/12 11:43:30;;;;;;;;;;;;;;;;;;;;;
2023/04/12 11:46:17;;;;;;;4.20;2.60;;;;;;;8.89;68.62;95912.77;109266;1270;24082;-88
2023/04/12 11:48:57;;;;;;;2.80;2.60;;;;;;;8.84;69.32;95903.94;109427;1270;22511;-90
2023/04/12 11:51:32;;;;;;;;;;;;;;;8.86;69.68;95902.33;109405;1260;24630;-87
2023/04/12 11:54:07;;;;;;;4.90;2.80;;;;;;;8.78;68.47;95902.65;109336;1264;105711;-88
2023/04/12 11:56:59;;;;;;;3.50;2.80;;;;;;;8.65;68.92;95901.86;109418;1270;22561;-88
2023/04/12 12:00:03;;;;;;;;;;;;;;;;;;;;;
2023/04/12 12:02:51;;;;;;;2.50;2.20;;;;;;;8.53;69.86;95899.98;105332;1262;5166481;-88
2023/04/12 12:05:26;;;;;;;4.40;2.80;;;;;;;8.59;69.67;95897.28;109334;1270;24240;-88
2023/04/12 12:08:26;;;;;;;4.70;3.30;;;;;;;8.61;70.59;95895.94;109382;1270;22521;-88
2023/04/12 12:11:25;;;;;;;3.80;2.90;;;;;;;8.73;70.57;95894.11;109410;1270;22524;-89
2023/04/12 12:14:09;;;;;;;;;;;;;;;;;;;;;
2023/04/12 12:17:15;;;;;;;4.20;3.10;;;;;;;8.86;70.81;95888.85;109298;1270;24294;-88
2023/04/12 12:19:53;;;;;;;4.80;3.20;;;;;;;8.94;70.81;95887.80;109236;1270;22612;-88
2023/04/12 12:22:31;;;;;;;4.30;3.20;;;;;;;9.02;70.54;95891.20;109397;1270;22531;-88
2023/04/12 12:25:29;;;;;;;4.60;3.00;;;;;;;9.00;69.37;95886.19;109400;1270;22538;-90
2023/04/12 12:28:27;;;;;;;4.10;3.20;;;;;;;8.89;69.44;95881.69;109389;1270;22512;-89
2023/04/12 12:31:23;;;;;;;4.80;3.20;;;;;;;8.88;69.72;95882.48;109204;1270;22546;-88
2023/04/12 12:34:06;;;;;;;4.50;3.40;;;;;;;8.95;69.65;95877.70;109240;1270;80393;-88
2023/04/12 12:36:54;;;;;;;3.80;3.30;;;;;;;8.98;69.97;95875.58;109428;1264;22518;-89
2023/04/12 12:39:30;;;;;;;5.20;3.10;;;;;;;9.10;70.20;95873.88;109278;1270;23831;-89
2023/04/12 12:42:09;;;;;;;4.90;3.30;;;;;;;9.15;69.70;95870.70;109340;1264;22518;-88
2023/04/12 12:44:48;;;;;;;5.60;4.00;;;;;;;9.22;69.99;95865.52;109183;1264;114622;-89
2023/04/12 12:47:31;;;;;;;5.50;2.90;;;;;;;9.31;69.85;95861.21;109258;1271;22570;-89
2023/04/12 12:50:16;;;;;;;;;;;;;;;;;;;;;
2023/04/12 12:53:09;;;;;;;4.50;3.40;;;;;;;9.49;69.29;95855.04;108004;1267;1802988;-88
2023/04/12 12:56:08;;;;;;;5.00;3.00;;;;;;;9.59;69.33;95848.86;109378;1270;22517;-88
2023/04/12 12:58:57;;;;;;;;;;;;;;;;;;;;;
2023/04/12 13:01:45;;;;;;;3.50;2.80;;;;;;;9.29;67.82;95849.91;109331;1270;22508;-88
2023/04/12 13:04:56;;;;;;;;;;;;;;;;;;;;;
2023/04/12 13:07:47;;;;;;;5.50;3.20;;;;;;;9.25;68.15;95840.33;109174;1271;24373;-88
2023/04/12 13:10:26;;;;;;;4.70;3.30;;;;;;;9.41;68.44;95836.92;109237;1264;23021;-88
2023/04/12 13:13:16;;;;;;;4.70;3.60;;;;;;;9.55;68.59;95831.41;107692;1260;2059781;-88
2023/04/12 13:15:55;;;;;;;5.60;3.20;;;;;;;9.59;67.81;95830.50;109126;1265;24417;-89
2023/04/12 13:18:53;;;;;;;4.00;3.10;;;;;;;9.59;67.54;95831.61;109275;1267;22644;-88
2023/04/12 13:21:56;;;;;;;3.80;3.00;;;;;;;9.68;67.86;95831.11;109261;1271;23080;-89